createdAt,value
2022-12-15T00:00:40.865Z,6.07
2022-12-15T00:06:02.509Z,5.80
2022-12-15T00:11:23.950Z,5.13
2022-12-15T00:16:45.610Z,5.15
2022-12-15T00:22:07.096Z,5.85
2022-12-15T00:27:28.753Z,4.65
2022-12-15T00:32:51.159Z,5.20
2022-12-15T00:38:12.732Z,6.03
2022-12-15T00:43:15.749Z,4.95
2022-12-15T00:48:18.809Z,5.20
2022-12-15T00:53:41.544Z,4.80
2022-12-15T00:59:03.051Z,5.03
2022-12-15T01:04:24.701Z,5.30
2022-12-15T01:09:46.330Z,4.25
2022-12-15T01:15:07.816Z,4.95
2022-12-15T01:20:20.535Z,5.15
2022-12-15T01:25:25.844Z,5.07
2022-12-15T01:30:28.893Z,4.82
2022-12-15T01:35:32.529Z,4.88
2022-12-15T01:40:47.714Z,4.80
2022-12-15T01:46:12.056Z,4.95
2022-12-15T01:51:20.778Z,4.93
2022-12-15T01:56:26.506Z,4.50
2022-12-15T02:01:30.183Z,4.75
2022-12-15T02:06:33.630Z,4.95
2022-12-15T02:12:01.541Z,4.78
2022-12-15T02:17:23.261Z,4.90
2022-12-15T02:22:50.935Z,5.43
2022-12-15T02:28:02.946Z,4.85
2022-12-15T02:33:24.506Z,5.55
2022-12-15T02:38:35.804Z,5.40
2022-12-15T02:43:39.317Z,5.65
2022-12-15T02:49:08.813Z,4.63
2022-12-15T02:54:24.488Z,4.95
2022-12-15T02:59:45.959Z,6.35
2022-12-15T03:04:56.742Z,5.70
2022-12-15T03:10:03.409Z,4.68
2022-12-15T03:15:07.080Z,5.70
2022-12-15T03:20:10.857Z,5.65
2022-12-15T03:25:14.001Z,5.68
2022-12-15T03:30:17.568Z,4.57
2022-12-15T03:35:21.078Z,4.93
2022-12-15T03:40:24.181Z,5.03
2022-12-15T03:45:28.986Z,5.43
2022-12-15T03:50:32.025Z,4.32
2022-12-15T03:55:35.662Z,5.43
2022-12-15T04:00:39.537Z,5.80
2022-12-15T04:05:42.606Z,5.05
2022-12-15T04:10:45.669Z,5.85
2022-12-15T04:15:48.783Z,5.22
2022-12-15T04:20:51.828Z,5.38
2022-12-15T04:26:14.167Z,5.68
2022-12-15T04:31:39.472Z,6.22
2022-12-15T04:37:04.647Z,6.00
2022-12-15T04:42:26.236Z,6.15
2022-12-15T04:47:48.400Z,6.40
2022-12-15T04:53:10.359Z,6.85
2022-12-15T04:58:32.200Z,6.00
2022-12-15T05:03:53.751Z,6.63
2022-12-15T05:09:15.329Z,7.78
2022-12-15T05:14:37.043Z,6.63
2022-12-15T05:19:58.346Z,6.45
2022-12-15T05:25:19.824Z,5.47
2022-12-15T05:30:41.440Z,6.38
2022-12-15T05:35:45.419Z,6.05
2022-12-15T05:40:48.511Z,6.57
2022-12-15T05:45:51.824Z,6.88
2022-12-15T05:50:55.107Z,5.90
2022-12-15T05:56:11.865Z,5.88
2022-12-15T06:01:17.826Z,6.53
2022-12-15T06:06:21.507Z,7.15
2022-12-15T06:11:24.667Z,8.52
2022-12-15T06:16:30.619Z,8.95
2022-12-15T06:21:36.327Z,9.52
2022-12-15T06:26:40.639Z,12.32
2022-12-15T06:31:43.857Z,14.90
2022-12-15T06:36:47.020Z,15.73
2022-12-15T06:41:50.014Z,19.75
2022-12-15T06:46:53.144Z,17.08
2022-12-15T06:51:56.238Z,11.00
2022-12-15T06:56:59.205Z,11.13
2022-12-15T07:02:02.465Z,11.27
2022-12-15T07:07:05.675Z,10.18
2022-12-15T07:12:12.034Z,10.57
2022-12-15T07:17:15.096Z,10.50
2022-12-15T07:22:18.080Z,10.30
2022-12-15T07:27:43.223Z,9.93
2022-12-15T07:32:49.897Z,8.50
2022-12-15T07:42:56.749Z,6.35
2022-12-15T07:47:59.755Z,6.15
2022-12-15T07:53:03.000Z,7.28
2022-12-15T07:58:06.049Z,6.93
2022-12-15T08:03:09.267Z,8.02
2022-12-15T08:08:15.289Z,10.63
2022-12-15T08:13:52.559Z,13.35
2022-12-15T08:18:41.751Z,10.57
2022-12-15T08:23:45.389Z,10.38
2022-12-15T08:28:48.455Z,8.35
2022-12-15T08:33:52.068Z,6.63
2022-12-15T08:38:57.757Z,6.35
2022-12-15T08:44:01.937Z,5.75
2022-12-15T08:49:05.195Z,5.78
2022-12-15T08:54:09.441Z,5.70
2022-12-15T08:59:12.553Z,5.78
2022-12-15T09:04:16.013Z,6.55
2022-12-15T09:09:19.844Z,5.30
2022-12-15T09:14:28.882Z,6.45
2022-12-15T09:19:32.646Z,7.53
2022-12-15T09:24:35.859Z,10.77
2022-12-15T09:29:38.924Z,20.42
2022-12-15T09:34:42.236Z,18.38
2022-12-15T09:39:45.212Z,14.45
2022-12-15T09:44:50.785Z,15.98
2022-12-15T09:49:59.152Z,11.65
2022-12-15T10:00:45.615Z,7.65
2022-12-15T10:06:16.069Z,8.38
2022-12-15T10:11:24.569Z,8.45
2022-12-15T10:16:51.439Z,9.18
2022-12-15T10:21:54.531Z,10.38
2022-12-15T10:27:25.036Z,10.55
2022-12-15T10:32:51.322Z,11.00
2022-12-15T10:38:00.319Z,14.05
2022-12-15T10:43:14.696Z,8.75
2022-12-15T10:48:20.774Z,9.07
2022-12-15T10:53:41.759Z,11.60
2022-12-15T10:58:52.084Z,10.88
2022-12-15T11:03:57.181Z,10.57
2022-12-15T11:09:25.725Z,11.20
2022-12-15T11:14:46.093Z,14.40
2022-12-15T11:20:02.233Z,22.45
2022-12-15T11:25:25.380Z,22.95
2022-12-15T11:30:42.772Z,26.13
2022-12-15T11:36:41.433Z,22.48
2022-12-15T11:41:56.052Z,15.52
2022-12-15T11:47:27.964Z,11.82
2022-12-15T11:52:56.094Z,11.02
2022-12-15T11:58:10.881Z,11.10
2022-12-15T12:03:38.991Z,7.65
2022-12-15T12:09:08.689Z,8.32
2022-12-15T12:19:58.190Z,7.88
2022-12-15T12:25:22.217Z,6.97
2022-12-15T12:30:29.642Z,9.25
2022-12-15T12:46:36.586Z,6.20
2022-12-15T12:52:05.480Z,7.47
2022-12-15T13:02:31.331Z,7.50
2022-12-15T13:07:42.111Z,5.82
2022-12-15T13:12:54.191Z,10.50
2022-12-15T13:18:06.812Z,10.20
2022-12-15T13:23:21.901Z,7.85
2022-12-15T13:28:38.540Z,7.30
2022-12-15T13:33:50.731Z,6.07
2022-12-15T13:38:56.683Z,8.15
2022-12-15T13:44:01.565Z,6.68
2022-12-15T13:49:37.779Z,6.35
2022-12-15T13:54:48.465Z,4.93
2022-12-15T14:00:05.592Z,6.28
2022-12-15T14:05:19.275Z,5.85
2022-12-15T14:10:30.336Z,8.60
2022-12-15T14:15:35.722Z,7.50
2022-12-15T14:20:43.115Z,7.65
2022-12-15T14:26:16.597Z,10.20
2022-12-15T14:31:24.907Z,10.57
2022-12-15T14:36:28.972Z,8.73
2022-12-15T14:41:44.117Z,10.50
2022-12-15T14:52:02.279Z,7.10
2022-12-15T14:57:28.738Z,5.10
2022-12-15T15:02:31.993Z,4.90
2022-12-15T15:07:46.341Z,6.68
2022-12-15T15:12:49.869Z,5.78
2022-12-15T15:17:59.329Z,5.82
2022-12-15T15:23:08.090Z,15.98
2022-12-15T15:28:20.283Z,6.53
2022-12-15T15:33:23.986Z,4.80
2022-12-15T15:38:33.931Z,12.88
2022-12-15T15:43:37.371Z,6.95
2022-12-15T15:48:54.300Z,6.35
2022-12-15T15:54:01.460Z,7.65
2022-12-15T15:59:12.438Z,6.53
2022-12-15T16:04:15.661Z,6.68
2022-12-15T16:09:18.772Z,6.95
2022-12-15T16:14:21.910Z,7.53
2022-12-15T16:19:27.992Z,6.68
2022-12-15T16:24:31.110Z,8.10
2022-12-15T16:29:34.337Z,13.82
2022-12-15T16:34:37.397Z,12.48
2022-12-15T16:39:40.604Z,8.85
2022-12-15T16:44:43.791Z,14.60
2022-12-15T16:49:47.052Z,14.82
2022-12-15T16:54:51.025Z,9.77
2022-12-15T16:59:54.128Z,8.75
2022-12-15T17:04:57.193Z,11.38
2022-12-15T17:10:00.239Z,6.72
2022-12-15T17:15:09.281Z,6.40
2022-12-15T17:20:30.532Z,6.53
2022-12-15T17:31:06.176Z,9.27
2022-12-15T17:36:29.463Z,10.55
2022-12-15T17:41:58.660Z,8.70
2022-12-15T17:46:55.618Z,8.38
2022-12-15T17:52:02.743Z,9.35
2022-12-15T17:57:05.793Z,7.88
2022-12-15T18:02:13.442Z,9.10
2022-12-15T18:07:19.886Z,10.20
2022-12-15T18:12:26.467Z,6.97
2022-12-15T18:17:29.572Z,10.45
2022-12-15T18:22:32.603Z,10.23
2022-12-15T18:27:35.630Z,10.10
2022-12-15T18:32:42.319Z,10.85
2022-12-15T18:37:45.721Z,16.00
2022-12-15T18:42:49.363Z,17.60
2022-12-15T18:47:54.357Z,11.65
2022-12-15T18:53:05.447Z,8.68
2022-12-15T18:58:28.985Z,8.07
2022-12-15T19:03:33.200Z,7.00
2022-12-15T19:08:38.911Z,9.80
2022-12-15T19:13:41.945Z,13.15
2022-12-15T19:19:04.179Z,15.35
2022-12-15T19:24:11.228Z,13.15
2022-12-15T19:29:22.952Z,12.88
2022-12-15T19:34:25.965Z,14.45
2022-12-15T19:39:30.510Z,11.05
2022-12-15T19:44:33.453Z,10.13
2022-12-15T19:49:36.486Z,10.30
2022-12-15T19:54:40.082Z,11.73
2022-12-15T19:59:43.157Z,15.68
2022-12-15T20:04:47.632Z,13.93
2022-12-15T20:09:50.678Z,14.20
2022-12-15T20:20:14.423Z,11.88
2022-12-15T20:25:20.350Z,10.50
2022-12-15T20:30:30.216Z,14.73
2022-12-15T20:35:35.864Z,9.55
2022-12-15T20:40:38.910Z,9.38
2022-12-15T20:45:42.118Z,13.15
2022-12-15T20:56:05.077Z,12.57
2022-12-15T21:01:24.572Z,8.68
2022-12-15T21:06:28.999Z,7.15
2022-12-15T21:11:33.387Z,7.97
2022-12-15T21:16:36.435Z,6.10
2022-12-15T21:21:43.967Z,5.47
2022-12-15T21:26:47.411Z,8.32
2022-12-15T21:31:51.114Z,9.52
2022-12-15T21:36:55.052Z,6.10
2022-12-15T21:42:00.574Z,5.78
2022-12-15T21:47:48.261Z,8.30
2022-12-15T21:52:51.577Z,7.43
2022-12-15T21:57:57.892Z,7.53
2022-12-15T22:03:01.209Z,7.90
2022-12-15T22:08:16.367Z,9.45
2022-12-15T22:13:21.562Z,14.25
2022-12-15T22:18:24.553Z,14.30
2022-12-15T22:23:27.592Z,13.98
2022-12-15T22:28:30.826Z,9.50
2022-12-15T22:33:39.713Z,10.60
2022-12-15T22:38:48.794Z,10.35
2022-12-15T22:43:54.911Z,11.70
2022-12-15T22:48:58.017Z,5.85
2022-12-15T22:54:01.818Z,9.60
2022-12-15T22:59:10.750Z,9.45
2022-12-15T23:09:32.396Z,9.98
2022-12-15T23:14:53.621Z,7.82
2022-12-15T23:19:57.947Z,9.95
2022-12-15T23:25:00.904Z,8.15
2022-12-15T23:30:04.694Z,6.30
2022-12-15T23:35:07.972Z,7.47
2022-12-15T23:40:11.526Z,8.00
2022-12-15T23:45:16.339Z,8.27
2022-12-15T23:50:19.538Z,10.43
2022-12-15T23:55:22.586Z,8.70
